Kenema Airport

Jump to: basic info | weather | comments

Related pages: nearby airports | nearby navaids | notams | map

Basic information (top)

Codes: KEN GFKE
Location: lon 7.891290, lat -11.176600, elev 485 ft / 148 m msl
Status: medium_airport
Scheduled airline service: yes
Links: Wikipedia Mobile

Weather (top)

Current conditions for Roberts International Airport 111nm (205km) SSE (rec'd 2015/03/31 21:30Z):

GLRB 312130Z 00000KT 9999 FEW014 25/24 Q1012 NOSIG

Airport forecast for Roberts International Airport 111nm (205km) SSE (rec'd 2015/03/31 18:51Z):

TAF TAF GLRB 311600Z 3118/0124 32010KT 9999 BKN017 FEW027CB 
      BECMG 3119/3121 36007KT 9999 
      TEMPO 3122/0102 03005KT 9000 SCT012 BKN100

Latest comments (top)

No comments yet for Kenema Airport

More... (top)

See also NOTAMs and nearby airports and navaids, or visit the Kenema Airport page at the main OurAirports website..